createdAt,value
2019-03-23T00:00:14.668Z,16.70
2019-03-23T00:01:14.667Z,16.20
2019-03-23T00:02:14.648Z,17.50
2019-03-23T00:03:14.638Z,17.30
2019-03-23T00:04:14.627Z,17.40
2019-03-23T00:05:14.624Z,17.10
2019-03-23T00:06:14.626Z,16.90
2019-03-23T00:07:14.611Z,17.10
2019-03-23T00:08:14.605Z,17.80
2019-03-23T00:09:14.579Z,15.80
2019-03-23T00:10:14.562Z,17.90
2019-03-23T00:11:14.568Z,18.30
2019-03-23T00:12:14.539Z,18.60
2019-03-23T00:13:14.533Z,17.70
2019-03-23T00:14:14.612Z,18.50
2019-03-23T00:15:24.474Z,16.50
2019-03-23T00:16:14.549Z,17.70
2019-03-23T00:17:14.489Z,17.60
2019-03-23T00:18:14.477Z,16.90
2019-03-23T00:19:14.465Z,17.30
2019-03-23T00:20:14.589Z,17.50
2019-03-23T00:21:14.456Z,18.20
2019-03-23T00:22:14.436Z,18.10
2019-03-23T00:23:14.420Z,17.10
2019-03-23T00:24:14.434Z,16.90
2019-03-23T00:25:14.463Z,16.30
2019-03-23T00:26:14.397Z,17.70
2019-03-23T00:27:14.378Z,16.50
2019-03-23T00:28:14.373Z,16.80
2019-03-23T00:29:14.357Z,17.60
2019-03-23T00:30:14.350Z,17.60
2019-03-23T00:31:14.349Z,16.60
2019-03-23T00:32:14.328Z,17.40
2019-03-23T00:33:14.313Z,17.60
2019-03-23T00:34:14.305Z,18.50
2019-03-23T00:35:14.294Z,17.70
2019-03-23T00:36:14.291Z,17.80
2019-03-23T00:37:14.271Z,17.40
2019-03-23T00:38:14.262Z,18.20
2019-03-23T00:39:14.248Z,18.40
2019-03-23T00:40:14.243Z,17.80
2019-03-23T00:41:14.281Z,16.50
2019-03-23T00:42:14.231Z,16.10
2019-03-23T00:43:14.210Z,16.50
2019-03-23T00:44:14.198Z,17.50
2019-03-23T00:45:14.184Z,16.50
2019-03-23T00:46:14.186Z,16.40
2019-03-23T00:47:14.162Z,16.80
2019-03-23T00:48:14.156Z,15.90
2019-03-23T00:49:14.145Z,17.20
2019-03-23T00:50:14.135Z,17.60
2019-03-23T00:51:14.130Z,17.90
2019-03-23T00:52:14.111Z,16.60
2019-03-23T00:53:14.100Z,17.90
2019-03-23T00:54:14.094Z,16.40
2019-03-23T00:55:14.078Z,18.50
2019-03-23T00:56:16.462Z,16.80
2019-03-23T00:57:14.055Z,17.40
2019-03-23T00:58:14.048Z,17.30
2019-03-23T00:59:14.957Z,17.20
2019-03-23T01:00:14.021Z,17.60
2019-03-23T01:01:14.495Z,17.20
2019-03-23T01:02:14.010Z,16.80
2019-03-23T01:03:13.992Z,15.40
2019-03-23T01:04:13.982Z,16.70
2019-03-23T01:05:13.971Z,17.30
2019-03-23T01:06:13.985Z,17.60
2019-03-23T01:07:13.947Z,17.00
2019-03-23T01:08:13.941Z,17.70
2019-03-23T01:09:13.931Z,16.90
2019-03-23T01:10:13.918Z,17.10
2019-03-23T01:11:13.909Z,17.10
2019-03-23T01:12:13.929Z,17.30
2019-03-23T01:13:13.886Z,16.90
2019-03-23T01:14:13.892Z,17.30
2019-03-23T01:15:13.869Z,16.40
2019-03-23T01:16:13.853Z,18.80
2019-03-23T01:17:13.852Z,17.20
2019-03-23T01:18:13.833Z,16.30
2019-03-23T01:19:13.822Z,17.30
2019-03-23T01:20:13.810Z,16.10
2019-03-23T01:21:13.807Z,17.70
2019-03-23T01:22:13.796Z,17.20
2019-03-23T01:23:13.806Z,17.20
2019-03-23T01:24:13.771Z,17.90
2019-03-23T01:25:13.756Z,17.80
2019-03-23T01:26:13.809Z,17.00
2019-03-23T01:27:13.745Z,19.20
2019-03-23T01:28:13.763Z,18.10
2019-03-23T01:29:13.711Z,17.30
2019-03-23T01:30:13.700Z,18.30
2019-03-23T01:31:13.691Z,17.10
2019-03-23T01:32:13.698Z,17.30
2019-03-23T01:33:13.668Z,16.20
2019-03-23T01:34:13.657Z,16.90
2019-03-23T01:35:13.650Z,17.60
2019-03-23T01:36:14.436Z,17.00
2019-03-23T01:37:13.638Z,17.60
2019-03-23T01:38:13.620Z,16.70
2019-03-23T01:39:13.618Z,17.30
2019-03-23T01:40:13.594Z,17.70
2019-03-23T01:41:13.595Z,17.60
2019-03-23T01:42:13.587Z,16.30
2019-03-23T01:43:13.563Z,17.50
2019-03-23T01:44:13.552Z,16.40
2019-03-23T01:45:13.544Z,16.10
2019-03-23T01:46:13.531Z,17.60
2019-03-23T01:47:13.529Z,17.30
2019-03-23T01:48:13.507Z,17.20
2019-03-23T01:49:13.497Z,16.70
2019-03-23T01:50:13.488Z,17.90
2019-03-23T01:51:13.483Z,17.30
2019-03-23T01:52:13.476Z,17.00
2019-03-23T01:53:13.455Z,18.00
2019-03-23T01:54:13.444Z,17.80
2019-03-23T01:55:13.433Z,17.80
2019-03-23T01:56:13.425Z,17.20
2019-03-23T01:57:13.422Z,15.40
2019-03-23T01:58:13.402Z,16.60
2019-03-23T01:59:13.391Z,17.70
2019-03-23T02:00:13.389Z,17.50
2019-03-23T02:01:13.369Z,16.90
2019-03-23T02:02:13.370Z,17.20
2019-03-23T02:03:13.350Z,16.50
2019-03-23T02:04:13.340Z,17.40
2019-03-23T02:05:13.327Z,18.00
2019-03-23T02:06:13.316Z,18.40
2019-03-23T02:07:14.218Z,16.30
2019-03-23T02:08:13.296Z,17.90
2019-03-23T02:09:13.285Z,16.90
2019-03-23T02:10:13.276Z,17.00
2019-03-23T02:11:13.262Z,17.20
2019-03-23T02:12:13.261Z,17.30
2019-03-23T02:13:13.239Z,16.90
2019-03-23T02:14:13.227Z,17.10
2019-03-23T02:15:13.217Z,17.80
2019-03-23T02:16:13.208Z,16.80
2019-03-23T02:17:13.206Z,16.30
2019-03-23T02:18:13.186Z,17.40
2019-03-23T02:19:13.187Z,17.40
2019-03-23T02:20:13.166Z,17.50
2019-03-23T02:21:13.156Z,17.40
2019-03-23T02:22:13.153Z,16.90
2019-03-23T02:23:13.144Z,17.80
2019-03-23T02:24:13.122Z,17.60
2019-03-23T02:25:13.112Z,18.00
2019-03-23T02:26:13.099Z,18.00
2019-03-23T02:27:13.097Z,17.60
2019-03-23T02:28:13.080Z,17.90
2019-03-23T02:29:13.067Z,17.10
2019-03-23T02:30:13.087Z,17.30
2019-03-23T02:31:13.058Z,17.90
2019-03-23T02:32:13.052Z,16.80
2019-03-23T02:33:13.025Z,16.60
2019-03-23T02:34:13.035Z,17.30
2019-03-23T02:35:13.008Z,18.00
2019-03-23T02:36:12.996Z,17.30
2019-03-23T02:37:12.998Z,17.20
2019-03-23T02:38:12.976Z,16.60
2019-03-23T02:39:12.961Z,16.30
2019-03-23T02:40:12.948Z,17.10
2019-03-23T02:41:12.949Z,17.90
2019-03-23T02:42:12.942Z,17.60
2019-03-23T02:43:12.923Z,17.70
2019-03-23T02:44:12.907Z,17.00
2019-03-23T02:45:12.897Z,17.90
2019-03-23T02:46:12.886Z,18.10
2019-03-23T02:47:12.888Z,17.40
2019-03-23T02:48:12.870Z,18.80
2019-03-23T02:49:12.857Z,17.00
2019-03-23T02:50:12.871Z,18.30
2019-03-23T02:51:12.839Z,17.10
2019-03-23T02:52:12.869Z,18.40
2019-03-23T02:53:12.820Z,18.10
2019-03-23T02:54:12.800Z,17.00
2019-03-23T02:55:12.804Z,17.50
2019-03-23T02:56:12.780Z,17.60
2019-03-23T02:57:12.769Z,17.40
2019-03-23T02:58:12.771Z,16.60
2019-03-23T02:59:12.747Z,18.50
2019-03-23T03:00:12.739Z,18.10
2019-03-23T03:01:12.728Z,17.70
2019-03-23T03:02:12.717Z,16.40
2019-03-23T03:03:12.718Z,17.50
2019-03-23T03:04:12.697Z,18.60
2019-03-23T03:05:12.697Z,17.20
2019-03-23T03:06:12.674Z,18.10
2019-03-23T03:07:12.660Z,17.20
2019-03-23T03:08:12.660Z,17.90
2019-03-23T03:09:12.644Z,17.60
2019-03-23T03:10:12.629Z,17.00
2019-03-23T03:11:12.618Z,17.70
2019-03-23T03:12:12.618Z,17.40
2019-03-23T03:13:12.615Z,17.60
2019-03-23T03:14:12.587Z,16.70
2019-03-23T03:15:12.580Z,16.90
2019-03-23T03:16:12.571Z,17.20
2019-03-23T03:17:12.554Z,17.60
2019-03-23T03:18:12.553Z,17.90
2019-03-23T03:19:12.534Z,16.60
2019-03-23T03:20:12.525Z,16.30
2019-03-23T03:21:12.514Z,18.00
2019-03-23T03:22:12.503Z,17.30
2019-03-23T03:23:12.506Z,17.20
2019-03-23T03:24:12.479Z,17.60
2019-03-23T03:25:12.467Z,17.00
2019-03-23T03:26:12.457Z,16.30
2019-03-23T03:27:12.446Z,18.00
2019-03-23T03:28:12.475Z,17.90
2019-03-23T03:29:12.429Z,18.10
2019-03-23T03:30:12.419Z,17.50
2019-03-23T03:31:12.405Z,18.10
2019-03-23T03:32:12.393Z,18.70
2019-03-23T03:33:12.387Z,17.60
2019-03-23T03:34:12.397Z,18.70
2019-03-23T03:35:12.363Z,16.70
2019-03-23T03:36:12.360Z,18.20
2019-03-23T03:37:12.342Z,17.70
2019-03-23T03:38:12.328Z,16.80
2019-03-23T03:39:12.327Z,17.90
2019-03-23T03:40:12.319Z,17.90
2019-03-23T03:41:12.295Z,17.10
2019-03-23T03:42:12.291Z,16.90
2019-03-23T03:43:12.274Z,17.50
2019-03-23T03:44:12.274Z,16.30
2019-03-23T03:45:12.264Z,17.80
2019-03-23T03:46:12.242Z,18.70
2019-03-23T03:47:12.229Z,16.70
2019-03-23T03:48:12.220Z,16.30
2019-03-23T03:49:13.154Z,17.10
2019-03-23T03:50:12.205Z,17.90
2019-03-23T03:51:12.195Z,16.40
2019-03-23T03:52:12.178Z,17.40
2019-03-23T03:53:12.169Z,17.30
2019-03-23T03:54:12.170Z,16.40
2019-03-23T03:55:12.144Z,16.60
2019-03-23T03:56:12.133Z,18.60
2019-03-23T03:57:12.134Z,17.80
2019-03-23T03:58:12.112Z,17.00
2019-03-23T03:59:12.112Z,17.40
2019-03-23T04:00:12.093Z,17.60
2019-03-23T04:01:12.084Z,17.00
2019-03-23T04:02:12.069Z,18.10
2019-03-23T04:03:12.063Z,17.00
2019-03-23T04:04:12.060Z,16.90
2019-03-23T04:05:12.044Z,15.90
2019-03-23T04:06:12.029Z,15.60
2019-03-23T04:07:12.023Z,17.60
2019-03-23T04:08:12.266Z,16.20
2019-03-23T04:09:12.009Z,16.80
2019-03-23T04:10:11.983Z,15.80
2019-03-23T04:11:11.974Z,15.70
2019-03-23T04:12:11.966Z,17.00
2019-03-23T04:13:11.952Z,14.50
2019-03-23T04:14:11.951Z,16.20
2019-03-23T04:15:11.929Z,15.90
2019-03-23T04:16:11.922Z,15.00
2019-03-23T04:17:11.910Z,15.70
2019-03-23T04:18:11.896Z,16.80
2019-03-23T04:19:11.924Z,15.00
2019-03-23T04:20:11.894Z,15.30
2019-03-23T04:21:11.866Z,15.60
2019-03-23T04:22:11.854Z,14.60
2019-03-23T04:23:11.886Z,16.20
2019-03-23T04:24:11.834Z,15.40
2019-03-23T04:25:11.833Z,16.60
2019-03-23T04:26:11.814Z,15.30
2019-03-23T04:27:11.803Z,16.40
2019-03-23T04:28:11.792Z,15.40
2019-03-23T04:29:11.782Z,15.50
2019-03-23T04:30:11.803Z,14.30
2019-03-23T04:31:11.766Z,15.40
2019-03-23T04:32:11.756Z,15.60
2019-03-23T04:33:11.739Z,15.30
2019-03-23T04:34:11.731Z,16.50
2019-03-23T04:35:11.725Z,16.40
2019-03-23T04:36:11.706Z,16.20
2019-03-23T04:37:11.695Z,16.00
2019-03-23T04:38:22.178Z,15.80
2019-03-23T04:39:12.680Z,15.20
2019-03-23T04:40:11.672Z,14.90
2019-03-23T04:41:11.669Z,15.30
2019-03-23T04:42:11.640Z,14.90
2019-03-23T04:43:11.632Z,15.90
2019-03-23T04:44:11.621Z,16.10
2019-03-23T04:45:11.621Z,15.50
2019-03-23T04:46:11.598Z,15.00
2019-03-23T04:47:11.587Z,15.10
2019-03-23T04:48:11.578Z,15.70
2019-03-23T04:49:11.577Z,15.50
2019-03-23T04:50:11.565Z,15.40
2019-03-23T04:51:11.547Z,14.80
2019-03-23T04:52:11.533Z,15.00
2019-03-23T04:53:11.523Z,15.00
2019-03-23T04:54:11.512Z,14.00
2019-03-23T04:55:11.514Z,14.10
2019-03-23T04:56:11.489Z,14.70
2019-03-23T04:57:11.485Z,14.50
2019-03-23T04:58:11.470Z,15.60
2019-03-23T04:59:11.458Z,14.90
2019-03-23T05:00:11.459Z,15.40
2019-03-23T05:01:11.439Z,14.80
2019-03-23T05:02:11.433Z,15.20
2019-03-23T05:03:11.421Z,15.50
2019-03-23T05:04:11.407Z,15.70
2019-03-23T05:05:11.412Z,14.10
2019-03-23T05:06:11.391Z,14.50
2019-03-23T05:07:11.376Z,15.20
2019-03-23T05:08:11.363Z,15.10
2019-03-23T05:09:11.351Z,15.80
2019-03-23T05:10:11.344Z,13.80
2019-03-23T05:11:11.346Z,15.40
2019-03-23T05:12:11.320Z,15.50
2019-03-23T05:13:11.312Z,15.00
2019-03-23T05:14:11.303Z,13.60
2019-03-23T05:15:11.293Z,14.80
2019-03-23T05:16:11.287Z,13.30
2019-03-23T05:17:11.267Z,14.70
2019-03-23T05:18:11.258Z,14.20
2019-03-23T05:19:11.244Z,14.90
2019-03-23T05:20:11.233Z,16.60
2019-03-23T05:21:11.235Z,14.60
2019-03-23T05:22:11.220Z,16.20
2019-03-23T05:23:11.201Z,15.50
2019-03-23T05:24:11.191Z,15.80
2019-03-23T05:25:11.179Z,16.30
2019-03-23T05:26:11.180Z,15.70
2019-03-23T05:27:11.158Z,16.50
2019-03-23T05:28:11.151Z,16.00
2019-03-23T05:29:11.137Z,15.90
2019-03-23T05:30:11.126Z,15.80
2019-03-23T05:31:11.124Z,13.40
2019-03-23T05:32:11.107Z,14.10
2019-03-23T05:33:11.103Z,13.70
2019-03-23T05:34:11.093Z,15.10
2019-03-23T05:35:11.073Z,14.60
2019-03-23T05:36:11.072Z,15.40
2019-03-23T05:37:11.052Z,15.90
2019-03-23T05:38:11.042Z,14.70
2019-03-23T05:39:11.031Z,15.00
2019-03-23T05:40:11.023Z,14.70
2019-03-23T05:41:11.018Z,14.80
2019-03-23T05:42:11.001Z,14.20
2019-03-23T05:43:10.989Z,14.80
2019-03-23T05:44:10.977Z,13.70
2019-03-23T05:45:10.967Z,14.20
2019-03-23T05:46:10.975Z,13.60
2019-03-23T05:47:10.946Z,14.00
2019-03-23T05:48:10.934Z,15.50
2019-03-23T05:49:10.925Z,14.20
2019-03-23T05:50:10.913Z,13.90
2019-03-23T05:51:10.913Z,12.90
2019-03-23T05:52:10.895Z,13.40
2019-03-23T05:53:10.882Z,13.20
2019-03-23T05:54:10.873Z,14.20
2019-03-23T05:55:10.861Z,15.80
2019-03-23T05:56:10.873Z,13.10
2019-03-23T05:57:10.848Z,13.80
2019-03-23T05:58:10.827Z,13.60
2019-03-23T05:59:10.816Z,14.10
2019-03-23T06:00:10.805Z,13.90
2019-03-23T06:01:10.803Z,14.40
2019-03-23T06:02:10.797Z,13.00
2019-03-23T06:03:10.774Z,14.00
2019-03-23T06:04:10.765Z,14.60
2019-03-23T06:05:10.754Z,14.30
2019-03-23T06:06:10.741Z,13.70
2019-03-23T06:07:10.742Z,14.00
2019-03-23T06:08:10.721Z,13.70
2019-03-23T06:09:10.714Z,14.00
2019-03-23T06:10:10.702Z,14.30
2019-03-23T06:11:10.691Z,13.70
2019-03-23T06:12:10.687Z,13.70
2019-03-23T06:13:10.716Z,13.10
2019-03-23T06:14:10.659Z,14.70
2019-03-23T06:15:10.653Z,13.30
2019-03-23T06:16:10.633Z,13.70
2019-03-23T06:17:10.635Z,13.30
2019-03-23T06:18:10.614Z,14.40
2019-03-23T06:19:10.601Z,13.80
2019-03-23T06:20:10.591Z,14.10
2019-03-23T06:21:10.583Z,13.80
2019-03-23T06:22:10.589Z,14.30
2019-03-23T06:23:10.565Z,14.10
2019-03-23T06:24:10.550Z,13.70
2019-03-23T06:25:10.543Z,14.90
2019-03-23T06:26:10.536Z,13.70
2019-03-23T06:27:10.529Z,13.20
2019-03-23T06:28:10.510Z,15.50
2019-03-23T06:29:10.494Z,14.00
2019-03-23T06:30:10.484Z,14.40
2019-03-23T06:31:10.526Z,14.70
2019-03-23T06:32:10.476Z,13.50
2019-03-23T06:33:10.458Z,14.60
2019-03-23T06:34:10.440Z,14.70
2019-03-23T06:35:10.432Z,13.80
2019-03-23T06:36:10.421Z,13.60
2019-03-23T06:37:10.429Z,13.80
2019-03-23T06:38:10.401Z,14.20
2019-03-23T06:39:10.389Z,14.00
2019-03-23T06:40:10.378Z,13.60
2019-03-23T06:41:10.371Z,14.30
2019-03-23T06:42:10.371Z,15.20
2019-03-23T06:43:10.346Z,14.30
2019-03-23T06:44:10.335Z,14.20
2019-03-23T06:45:10.327Z,14.20
2019-03-23T06:46:10.314Z,15.10
2019-03-23T06:47:10.318Z,14.80
2019-03-23T06:48:10.291Z,14.60
2019-03-23T06:49:10.279Z,14.20
2019-03-23T06:50:10.270Z,15.10
2019-03-23T06:51:10.261Z,15.20
2019-03-23T06:52:10.263Z,15.20
2019-03-23T06:53:10.235Z,14.60
2019-03-23T06:54:10.227Z,14.40
2019-03-23T06:55:10.212Z,14.30
2019-03-23T06:56:10.207Z,14.50
2019-03-23T06:57:10.206Z,14.30
2019-03-23T06:58:10.179Z,14.30
2019-03-23T06:59:10.185Z,14.30
2019-03-23T07:00:10.162Z,14.20
2019-03-23T07:01:10.150Z,15.00
2019-03-23T07:02:10.155Z,15.30
2019-03-23T07:03:10.131Z,14.30
2019-03-23T07:04:10.118Z,14.80
2019-03-23T07:05:10.111Z,14.20
2019-03-23T07:06:10.095Z,14.80
2019-03-23T07:07:10.105Z,15.40
2019-03-23T07:08:10.080Z,15.40
2019-03-23T07:09:16.043Z,14.10
2019-03-23T07:10:11.053Z,14.90
2019-03-23T07:11:10.046Z,15.20
2019-03-23T07:12:10.044Z,15.70
2019-03-23T07:13:10.021Z,15.60
2019-03-23T07:14:10.010Z,15.10
2019-03-23T07:15:19.484Z,14.20
2019-03-23T07:16:10.987Z,15.00
2019-03-23T07:17:09.990Z,13.90
2019-03-23T07:18:09.967Z,13.80
2019-03-23T07:19:09.959Z,15.00
2019-03-23T07:20:09.946Z,14.00
2019-03-23T07:21:09.934Z,15.20
2019-03-23T07:22:09.934Z,14.80
2019-03-23T07:23:09.913Z,14.80
2019-03-23T07:24:09.903Z,14.80
2019-03-23T07:25:09.893Z,15.50
2019-03-23T07:26:09.882Z,15.40
2019-03-23T07:27:09.879Z,15.50
2019-03-23T07:28:09.861Z,15.90
2019-03-23T07:29:09.847Z,14.90
2019-03-23T07:30:09.837Z,14.70
2019-03-23T07:31:09.834Z,15.20
2019-03-23T07:32:09.833Z,15.20
2019-03-23T07:33:09.807Z,15.60
2019-03-23T07:34:09.793Z,14.90
2019-03-23T07:35:09.783Z,14.90
2019-03-23T07:36:09.771Z,15.40
2019-03-23T07:37:09.790Z,14.80
2019-03-23T07:38:09.754Z,13.80
2019-03-23T07:39:09.740Z,14.70
2019-03-23T07:40:09.728Z,15.30
2019-03-23T07:41:09.716Z,15.30
2019-03-23T07:42:09.722Z,14.30
2019-03-23T07:43:09.701Z,15.10
2019-03-23T07:44:09.686Z,15.30
2019-03-23T07:45:09.676Z,14.80
2019-03-23T07:46:09.662Z,15.00
2019-03-23T07:47:09.663Z,14.80
2019-03-23T07:48:09.643Z,15.60
2019-03-23T07:49:09.636Z,15.50
2019-03-23T07:50:09.623Z,15.30
2019-03-23T07:51:09.613Z,16.10
2019-03-23T07:52:09.612Z,18.10
2019-03-23T07:53:09.589Z,16.90
2019-03-23T07:54:09.579Z,15.00
2019-03-23T07:55:09.572Z,16.70
2019-03-23T07:56:09.557Z,16.60
2019-03-23T07:57:09.557Z,15.50
2019-03-23T07:58:09.539Z,15.90
2019-03-23T07:59:09.531Z,18.10
2019-03-23T08:00:09.519Z,17.40
2019-03-23T08:01:09.504Z,16.00
2019-03-23T08:02:09.510Z,15.90
2019-03-23T08:03:09.485Z,15.00
2019-03-23T08:04:09.477Z,16.50
2019-03-23T08:05:09.470Z,15.30
2019-03-23T08:06:09.454Z,15.90
2019-03-23T08:07:09.470Z,17.20
2019-03-23T08:08:09.437Z,15.90
2019-03-23T08:09:19.806Z,14.70
2019-03-23T08:10:10.413Z,16.20
2019-03-23T08:11:09.401Z,15.60
2019-03-23T08:12:09.394Z,16.20
2019-03-23T08:13:09.394Z,16.30
2019-03-23T08:14:09.372Z,15.40
2019-03-23T08:15:09.365Z,15.30
2019-03-23T08:16:09.358Z,16.60
2019-03-23T08:17:09.343Z,15.80
2019-03-23T08:18:09.347Z,15.70
2019-03-23T08:19:09.320Z,16.00
2019-03-23T08:20:09.313Z,16.80
2019-03-23T08:21:09.302Z,16.50
2019-03-23T08:22:11.180Z,18.60
2019-03-23T08:23:09.291Z,17.20
2019-03-23T08:24:09.274Z,17.10
2019-03-23T08:25:09.303Z,16.30
2019-03-23T08:26:09.252Z,17.10
2019-03-23T08:27:09.240Z,16.70
2019-03-23T08:28:09.575Z,17.20
2019-03-23T08:29:09.222Z,17.10
2019-03-23T08:30:09.211Z,17.30
2019-03-23T08:31:09.205Z,18.00
2019-03-23T08:32:09.191Z,15.70
2019-03-23T08:33:09.187Z,16.60
2019-03-23T08:34:09.169Z,17.30
2019-03-23T08:35:09.156Z,16.70
2019-03-23T08:36:09.149Z,17.30
2019-03-23T08:37:09.139Z,16.70
2019-03-23T08:38:09.136Z,17.00
2019-03-23T08:39:09.147Z,16.40
2019-03-23T08:40:09.105Z,16.30
2019-03-23T08:41:09.099Z,16.50
2019-03-23T08:42:09.088Z,15.30
2019-03-23T08:43:10.222Z,16.90
2019-03-23T08:44:09.068Z,16.70
2019-03-23T08:45:09.283Z,16.90
2019-03-23T08:46:11.033Z,17.20
2019-03-23T08:47:10.033Z,16.20
2019-03-23T08:48:10.578Z,17.00
2019-03-23T08:49:09.019Z,16.70
2019-03-23T08:50:10.036Z,16.50
2019-03-23T08:51:09.000Z,16.20
2019-03-23T08:52:08.989Z,16.10
2019-03-23T08:53:08.987Z,16.90
2019-03-23T08:54:08.968Z,16.50
2019-03-23T08:55:08.960Z,17.00
2019-03-23T08:56:08.953Z,16.60
2019-03-23T08:57:08.938Z,16.00
2019-03-23T08:58:13.566Z,16.20
2019-03-23T08:59:12.539Z,16.00
2019-03-23T09:00:08.909Z,16.40
2019-03-23T09:01:11.568Z,17.20
2019-03-23T09:02:08.890Z,17.40
2019-03-23T09:03:08.881Z,16.40
2019-03-23T09:04:08.878Z,17.50
2019-03-23T09:05:08.859Z,16.70
2019-03-23T09:06:08.846Z,16.70
2019-03-23T09:07:15.573Z,16.40
2019-03-23T09:08:08.829Z,16.60
2019-03-23T09:09:11.549Z,17.90
2019-03-23T09:10:08.857Z,17.10
2019-03-23T09:11:08.798Z,17.10
2019-03-23T09:12:12.547Z,16.50
2019-03-23T09:13:08.783Z,16.90
2019-03-23T09:14:10.637Z,18.00
2019-03-23T09:15:11.577Z,17.10
2019-03-23T09:16:08.749Z,17.50
2019-03-23T09:17:08.736Z,16.70
2019-03-23T09:18:08.727Z,16.30
2019-03-23T09:19:08.726Z,17.00
2019-03-23T09:20:08.709Z,16.70
2019-03-23T09:21:08.701Z,16.70
2019-03-23T09:22:08.687Z,17.30
2019-03-23T09:23:08.679Z,17.60
2019-03-23T09:24:08.674Z,17.00
2019-03-23T09:25:08.656Z,17.50
2019-03-23T09:26:08.646Z,17.30
2019-03-23T09:27:08.634Z,15.80
2019-03-23T09:28:08.627Z,17.10
2019-03-23T09:29:08.623Z,17.10
2019-03-23T09:30:08.606Z,17.70
2019-03-23T09:31:08.597Z,17.70
2019-03-23T09:32:08.583Z,16.00
2019-03-23T09:33:08.573Z,17.50
2019-03-23T09:34:08.586Z,18.30
2019-03-23T09:35:08.551Z,18.20
2019-03-23T09:36:08.543Z,17.40
2019-03-23T09:37:08.553Z,17.30
2019-03-23T09:38:08.527Z,16.70
2019-03-23T09:39:08.511Z,17.20
2019-03-23T09:40:10.992Z,17.70
2019-03-23T09:41:08.489Z,17.90
2019-03-23T09:42:08.484Z,17.00
2019-03-23T09:43:08.470Z,17.20
2019-03-23T09:44:08.468Z,17.80
2019-03-23T09:45:08.458Z,16.30
2019-03-23T09:46:08.440Z,17.90
2019-03-23T09:47:08.434Z,17.70
2019-03-23T09:48:08.419Z,17.60
2019-03-23T09:49:08.409Z,17.90
2019-03-23T09:50:08.413Z,18.80
2019-03-23T09:51:08.390Z,18.30
2019-03-23T09:52:08.382Z,17.70
2019-03-23T09:53:08.375Z,15.90
2019-03-23T09:54:08.358Z,17.20
2019-03-23T09:55:08.358Z,16.60
2019-03-23T09:56:08.338Z,17.10
2019-03-23T09:57:08.328Z,16.70
2019-03-23T09:58:08.317Z,16.20
2019-03-23T09:59:08.313Z,16.40
2019-03-23T10:00:08.307Z,16.60
2019-03-23T10:01:08.285Z,15.50
2019-03-23T10:02:08.277Z,15.90
2019-03-23T10:03:08.270Z,16.20
2019-03-23T10:04:08.255Z,17.00
2019-03-23T10:05:08.254Z,17.10
2019-03-23T10:06:08.236Z,16.50
2019-03-23T10:07:08.226Z,17.60
2019-03-23T10:08:08.220Z,16.10
2019-03-23T10:09:08.221Z,16.10
2019-03-23T10:10:08.200Z,16.10
2019-03-23T10:11:08.192Z,16.00
2019-03-23T10:12:08.171Z,15.10
2019-03-23T10:13:11.110Z,15.60
2019-03-23T10:14:08.155Z,16.80
2019-03-23T10:15:08.150Z,15.60
2019-03-23T10:16:08.131Z,16.50
2019-03-23T10:17:08.117Z,16.30
2019-03-23T10:18:08.111Z,16.00
2019-03-23T10:19:08.100Z,17.20
2019-03-23T10:20:08.095Z,15.70
2019-03-23T10:21:08.515Z,15.20
2019-03-23T10:22:08.070Z,15.90
2019-03-23T10:23:08.054Z,16.70
2019-03-23T10:24:08.047Z,16.90
2019-03-23T10:25:08.044Z,16.10
2019-03-23T10:26:08.026Z,16.20
2019-03-23T10:27:08.174Z,16.30
2019-03-23T10:28:08.025Z,15.60
2019-03-23T10:29:07.990Z,16.50
2019-03-23T10:30:07.995Z,17.50
2019-03-23T10:31:07.968Z,16.60
2019-03-23T10:32:07.957Z,16.20
2019-03-23T10:33:07.953Z,16.70
2019-03-23T10:34:07.937Z,18.70
2019-03-23T10:35:07.940Z,16.00
2019-03-23T10:36:07.920Z,15.90
2019-03-23T10:37:07.909Z,16.00
2019-03-23T10:38:07.901Z,15.60
2019-03-23T10:39:07.913Z,16.30
2019-03-23T10:40:07.890Z,15.80
2019-03-23T10:41:07.867Z,16.90
2019-03-23T10:42:07.862Z,16.10
2019-03-23T10:43:07.857Z,16.00
2019-03-23T10:44:07.833Z,16.10
2019-03-23T10:45:07.846Z,15.60
2019-03-23T10:46:07.810Z,15.30
2019-03-23T10:47:07.799Z,15.20
2019-03-23T10:48:07.791Z,15.90
2019-03-23T10:49:07.778Z,16.20
2019-03-23T10:50:07.768Z,15.80
2019-03-23T10:51:07.767Z,15.10
2019-03-23T10:52:07.760Z,15.40
2019-03-23T10:53:07.739Z,16.20
2019-03-23T10:54:07.725Z,16.30
2019-03-23T10:55:07.717Z,16.20
2019-03-23T10:56:07.714Z,15.90
2019-03-23T10:57:07.694Z,15.70
2019-03-23T10:58:07.724Z,16.40
2019-03-23T10:59:07.676Z,16.40
2019-03-23T11:00:07.662Z,16.00
2019-03-23T11:01:07.670Z,15.80
2019-03-23T11:02:07.640Z,14.60
2019-03-23T11:03:07.629Z,15.50
2019-03-23T11:04:07.625Z,17.00
2019-03-23T11:05:07.610Z,16.10
2019-03-23T11:06:07.609Z,16.60
2019-03-23T11:07:07.588Z,16.80
2019-03-23T11:08:07.577Z,16.50
2019-03-23T11:09:07.567Z,17.10
2019-03-23T11:10:07.560Z,16.30
2019-03-23T11:11:07.580Z,17.50
2019-03-23T11:12:07.538Z,17.30
2019-03-23T11:13:07.523Z,16.60
2019-03-23T11:14:07.514Z,17.40
2019-03-23T11:15:07.503Z,16.70
2019-03-23T11:16:07.504Z,16.70
2019-03-23T11:17:07.493Z,17.70
2019-03-23T11:18:07.561Z,18.80
2019-03-23T11:19:13.303Z,18.20
2019-03-23T11:20:08.495Z,17.20
2019-03-23T11:21:07.505Z,17.60
2019-03-23T11:22:09.606Z,19.70
2019-03-23T11:23:07.426Z,19.40
2019-03-23T11:24:07.411Z,19.10
2019-03-23T11:25:07.401Z,20.10
2019-03-23T11:26:07.419Z,18.90
2019-03-23T11:27:07.380Z,19.40
2019-03-23T11:28:07.369Z,20.10
2019-03-23T11:29:08.410Z,17.70
2019-03-23T11:30:07.375Z,18.50
2019-03-23T11:31:07.337Z,19.10
2019-03-23T11:32:07.337Z,18.00
2019-03-23T11:33:07.316Z,19.50
2019-03-23T11:34:17.219Z,18.00
2019-03-23T11:35:08.321Z,18.50
2019-03-23T11:36:07.282Z,17.50
2019-03-23T11:37:07.369Z,17.50
2019-03-23T11:38:07.307Z,18.00
2019-03-23T11:39:07.262Z,18.90
2019-03-23T11:40:07.240Z,18.00
2019-03-23T11:41:07.232Z,19.10
2019-03-23T11:42:07.676Z,17.50
2019-03-23T11:43:07.208Z,18.00
2019-03-23T11:44:07.199Z,19.20
2019-03-23T11:45:07.189Z,18.50
2019-03-23T11:46:07.176Z,18.60
2019-03-23T11:47:07.176Z,17.90
2019-03-23T11:48:07.158Z,18.70
2019-03-23T11:49:07.145Z,18.20
2019-03-23T11:50:07.135Z,17.40
2019-03-23T11:51:07.122Z,17.60
2019-03-23T11:52:07.123Z,18.60
2019-03-23T11:53:07.100Z,17.70
2019-03-23T11:54:07.106Z,18.70
2019-03-23T11:55:07.081Z,18.00
2019-03-23T11:56:07.129Z,18.10
2019-03-23T11:57:07.071Z,17.50
2019-03-23T11:58:07.049Z,18.10
2019-03-23T11:59:07.039Z,17.60
2019-03-23T12:00:07.028Z,16.80
2019-03-23T12:01:07.018Z,17.70
2019-03-23T12:02:07.017Z,17.20
2019-03-23T12:03:07.001Z,17.40
2019-03-23T12:04:06.987Z,17.30
2019-03-23T12:05:06.975Z,16.90
2019-03-23T12:06:06.964Z,17.20
2019-03-23T12:07:06.965Z,16.90
2019-03-23T12:08:06.950Z,17.40
2019-03-23T12:09:06.933Z,17.10
2019-03-23T12:10:06.924Z,18.00
2019-03-23T12:11:06.912Z,17.40
2019-03-23T12:12:06.911Z,17.70
2019-03-23T12:13:06.889Z,17.50
2019-03-23T12:14:06.910Z,18.20
2019-03-23T12:15:06.871Z,17.70
2019-03-23T12:16:06.860Z,18.50
2019-03-23T12:17:06.858Z,17.30
2019-03-23T12:18:06.836Z,16.90
2019-03-23T12:19:06.825Z,18.00
2019-03-23T12:20:06.819Z,17.20
2019-03-23T12:21:16.200Z,17.90
2019-03-23T12:22:06.806Z,18.20
2019-03-23T12:23:06.786Z,17.30
2019-03-23T12:24:06.774Z,18.70
2019-03-23T12:25:06.765Z,18.00
2019-03-23T12:26:06.749Z,16.90
2019-03-23T12:27:06.752Z,16.80
2019-03-23T12:28:06.736Z,18.40
2019-03-23T12:29:06.746Z,17.50
2019-03-23T12:30:07.425Z,17.70
2019-03-23T12:31:06.698Z,17.30
2019-03-23T12:32:06.744Z,17.20
2019-03-23T12:33:06.679Z,18.10
2019-03-23T12:34:06.674Z,18.20
2019-03-23T12:35:06.666Z,18.10
2019-03-23T12:36:06.645Z,18.00
2019-03-23T12:37:06.633Z,17.90
2019-03-23T12:38:06.632Z,17.70
2019-03-23T12:39:06.625Z,18.20
2019-03-23T12:40:06.607Z,17.80
2019-03-23T12:41:18.584Z,17.70
2019-03-23T12:42:07.597Z,18.00
2019-03-23T12:43:06.584Z,17.60
2019-03-23T12:44:06.559Z,18.00
2019-03-23T12:45:06.549Z,18.50
2019-03-23T12:46:06.537Z,17.60
2019-03-23T12:47:06.528Z,18.20
2019-03-23T12:48:06.527Z,19.00
2019-03-23T12:49:06.506Z,19.10
2019-03-23T12:50:06.497Z,18.40
2019-03-23T12:51:06.485Z,18.90
2019-03-23T12:52:06.479Z,17.50